Tropical Cyclones
[Index]
Season 2020-2021 Tropical Cyclone GUAMBE Track Map
Season 2020-2021 Summaries (Operational Data): [AU] [SIO] [SPAC] [SH]
<<- Previous TC | 2020-2021 Season | Next TC ->>

click for intensity scale information  Lat/long Grid: Show Hide

 Date Labels: Show Hide

Operational Tropical Cyclone Data

Name: GUAMBE
Number: 2121

09 Feb 2021 18:00 UTC to 22 Feb 2021 06:00 UTC

    date/time    lat    long     hPa   cat  kts
2021-02-09 18   21.7    39.5    1010         15          
2021-02-10 00   22.0    39.8    1010         15          
2021-02-10 06   22.5    39.8    1010         15          
2021-02-10 12   22.9    39.6    1005         15          
2021-02-10 18   23.0    39.3    1006         20          
2021-02-11 00   23.3    38.7    1010         15          
2021-02-11 06   23.6    38.0    1010         15          
2021-02-11 12   23.7    37.5    1010         15          
2021-02-11 18   23.2    37.0    1007         20          
2021-02-12 00   22.9    36.1    1003         20          
2021-02-12 06   22.4    35.3    1006         20          
2021-02-12 12   22.1    34.5    1006         20          
2021-02-12 18   22.0    34.8    1004         20          
2021-02-13 00   22.1    35.0    1001         20          
2021-02-13 06   22.5    35.1    1001         20          
2021-02-13 12   22.9    34.3    1000         20          
2021-02-13 18   23.2    33.7    1001         20          
2021-02-14 00   23.3    32.8    1001         20          
2021-02-14 06   23.3    32.3    1002         20          
2021-02-14 12   23.1    31.9    1002         20          
2021-02-14 18   22.7    32.0    1000         20          
2021-02-15 00   22.8    32.5     999         20          
2021-02-15 06   22.5    33.2    1000         20          
2021-02-15 12   22.3    33.8     997         20          
2021-02-15 18   21.9    34.0     997         20          
2021-02-16 00   21.6    35.1    1002         20          
2021-02-16 06   21.8    35.8     992         20          
2021-02-16 12   21.7    36.3     992         20          
2021-02-16 18   21.2    36.6     998         20          
2021-02-17 00   21.1    37.0     999         20          
2021-02-17 06   21.3    37.3     997         25          
2021-02-17 12   21.5    37.4     994    1    35          
2021-02-17 18   21.7    37.4     991    1    40          
2021-02-18 00   22.1    37.4     992    1    40          
2021-02-18 06   22.6    37.6     991    1    45          
2021-02-18 12   23.0    37.5     986    1    45          
2021-02-18 18   23.6    37.4     981    2    55          
2021-02-19 00   24.1    37.3     977    2    55          
2021-02-19 06   24.4    36.8     976    2    60          
2021-02-19 12   24.9    36.5     964    3    75          
2021-02-19 18   25.2    36.4     965    3    75          
2021-02-20 00   25.7    36.3     973    3    65          
2021-02-20 06   26.0    36.3     972    2    60          
2021-02-20 12   26.7    36.5     974    2    55          
2021-02-20 18   27.4    36.7     978    2    55          
2021-02-21 00   28.7    37.5     979    2    55          
2021-02-21 06   29.9    38.4     985    2    50          
2021-02-21 12   30.8    39.3     988    1    40          
2021-02-21 18   32.5    41.3     981    2    50          
2021-02-22 00   34.0    44.9     980    2    50          
2021-02-22 06   36.2    48.2     982    2    50          
Winds were reported as (or converted to) 10-min average.

Tropical cyclone tracks developed by Michael Bath using operational warnings and advisories and Google Maps.


Document: tropical_cyclone_guambe.htm
Updated: 7 May 2021
[Australian Severe Weather index] [Copyright Notice] [Email Contacts] [Search This Site] [Privacy Policy]


Main Index Home Page Stock Weather Photos Extreme Storms Discussion Storm News and Storm Chasing Reports Tropical Cyclones / Hurricanes / Typhoons Weather Data and Links Wild Fires / Bushfires Weather Observation Techniques Weather Picture Catalogue Tornado Pictures and Reports Stock Video Footage and DVDs for sale